Flight Track Log - Related Links

Times and Time Zones

All times are in EST time to prevent confusion due to time zone crossing. See the FSR411 flight status page for this flight to view local times or setup timezone preferences in your user account.

Time Position Orientation Groundspeed Altitude Reporting Facility
EST Latitude Longitude Course Direction KTS MPH feet Rate Location/Type
Mon 11:20:27 AM 40.0508 -88.2033 123° Southeast 245 282 7,500  Level Indianapolis Center
Mon 11:21:16 AM 40.0094 -88.1419 131° Southeast 273 314 9,600 1,459 Climbing Chicago Center
Mon 11:22:18 AM 39.9553 -88.0436 126° Southeast 336 387 10,200 2,382 Climbing Chicago Center
Mon 11:23:32 AM 39.8636 -87.8889 128° Southeast 380 437 15,000 3,618 Climbing Indianapolis Center
Mon 11:24:34 AM 39.7936 -87.7653 126° Southeast 415 478 18,400 2,780 Climbing Indianapolis Center
Mon 11:25:00 AM 39.7161 -87.6572 123° Southeast  Level Estimated
Mon 11:25:35 AM 39.7169 -87.6350 127° Southeast 450 518 20,700  Level Indianapolis Center
Mon 11:26:37 AM 39.6372 -87.4986 127° Southeast 473 544 21,000 145 Climbing Indianapolis Center
Mon 11:27:39 AM 39.5561 -87.3633 128° Southeast 477 549 21,000  Level Indianapolis Center
Mon 11:28:40 AM 39.4744 -87.2278 128° Southeast 480 552 21,000  Level Indianapolis Center
Mon 11:29:42 AM 39.3597 -87.0906 137° Southeast 476 548 21,000  Level Indianapolis Center
Mon 11:30:43 AM 39.2667 -86.9750 136° Southeast 471 542 21,000  Level Indianapolis Center
Mon 11:31:45 AM 39.1722 -86.8597 137° Southeast 471 542 21,000  Level Indianapolis Center
Mon 11:32:47 AM 39.0728 -86.7364 136° Southeast 473 544 21,000  Level Indianapolis Center
Mon 11:34:50 AM 38.8708 -86.4908 137° Southeast 471 542 21,000  Level Indianapolis Center
Mon 11:36:00 AM 38.7808 -86.3890 139° Southeast  Level FlightAware Approximate
Mon 11:36:53 AM 38.6900 -86.2722 139° Southeast 466 536 21,000  Level Indianapolis Center
Mon 11:37:54 AM 38.6275 -86.1222 118° Southeast 475 547 21,000 -683 Level Indianapolis Center
Mon 11:38:56 AM 38.5719 -85.9683 115° Southeast 475 547 19,600 -1,452 Descending Indianapolis Center
Mon 11:39:58 AM 38.5119 -85.8167 117° Southeast 474 545 18,000 -1,366 Descending Indianapolis Center
Mon 11:40:59 AM 38.4561 -85.6700 116° Southeast 465 535 16,800 -1,512 Descending Indianapolis Center
Mon 11:42:01 AM 38.3917 -85.5031 116° Southeast 445 512 14,900 -1,707 Descending Indianapolis Center
Mon 11:43:02 AM 38.3386 -85.3703 117° Southeast 425 489 13,300 -1,512 Descending Indianapolis Center
Mon 11:44:04 AM 38.2897 -85.2439 116° Southeast 403 464 11,800 -1,122 Descending Indianapolis Center
Mon 11:45:05 AM 38.2469 -85.1339 116° Southeast 367 422 11,000 -1,024 Descending Indianapolis Center
Mon 11:48:10 AM 38.1136 -84.8414 115° Southeast 301 346 7,600 -1,390 Descending Indianapolis Center
Mon 11:49:11 AM 38.0439 -84.7628 138° Southeast 290 334 5,300 -2,049 Descending Indianapolis Center
Mon 11:50:13 AM 37.9917 -84.7025 138° Southeast 267 307 3,400 -1,268 Descending Indianapolis Center
Mon 11:51:14 AM 37.9903 -84.6564 92° East 194 223 2,700 -689 Descending Indianapolis Center
Mon 11:53:00 AM 38.0333 -84.6000 113° Southeast  Level FlightAware Approximate
Mon 12:00:00 PM 38.0368 -84.6086 113° Southeast  Level Estimated
Mon 12:01:00 PM 38.0368 -84.6086 113° Southeast  Level Estimated

Login

Don't have an account? Register now (free) for customized features, flight alerts, and more!